Time;durP1;ratioP1;P1;durP2;ratioP2;P2;SDS_P1;SDS_P2;PMS_P1;PMS_P2;Temp;Humidity;BMP_temperature;BMP_pressure;BME280_temperature;BME280_humidity;BME280_pressure;Samples;Min_cycle;Max_cycle;Signal;HPM_P1;HPM_P2
2023/08/14 00:01:04;;;;;;;7.88;2.10;;;;;;;15.60;100.00;99619.63;5031024;28;20045;-81
2023/08/14 00:03:30;;;;;;;12.93;2.40;;;;;;;15.61;100.00;99621.25;5046647;28;20067;-83
2023/08/14 00:05:56;;;;;;;7.82;1.38;;;;;;;15.58;100.00;99614.50;5020684;28;20033;-82
2023/08/14 00:08:21;;;;;;;10.95;1.88;;;;;;;15.58;100.00;99608.34;5020191;28;20029;-82
2023/08/14 00:10:47;;;;;;;8.68;2.15;;;;;;;15.56;100.00;99607.75;5026801;28;20052;-82
2023/08/14 00:13:13;;;;;;;7.72;1.98;;;;;;;15.55;100.00;99616.72;5029852;28;20037;-82
2023/08/14 00:15:39;;;;;;;11.88;2.17;;;;;;;15.54;100.00;99607.09;5024055;28;20103;-82
2023/08/14 00:18:05;;;;;;;10.00;2.50;;;;;;;15.55;100.00;99609.56;5031291;28;20056;-83
2023/08/14 00:20:31;;;;;;;11.88;1.77;;;;;;;15.55;100.00;99603.41;5012509;28;20033;-81
2023/08/14 00:22:57;;;;;;;10.73;2.03;;;;;;;15.53;100.00;99600.94;5030117;28;20040;-81
2023/08/14 00:25:23;;;;;;;12.85;2.30;;;;;;;15.53;100.00;99594.81;5026922;28;20051;-81
2023/08/14 00:27:49;;;;;;;6.22;1.80;;;;;;;15.51;100.00;99595.00;5042297;28;20495;-81
2023/08/14 00:30:14;;;;;;;9.88;2.10;;;;;;;15.48;100.00;99590.88;5048978;28;20033;-82
2023/08/14 00:32:40;;;;;;;10.55;2.75;;;;;;;15.48;100.00;99592.75;5008252;28;20041;-82
2023/08/14 00:35:06;;;;;;;7.25;1.60;;;;;;;15.48;100.00;99590.09;5048090;28;20108;-82
2023/08/14 00:37:43;;;;;;;12.25;1.80;;;;;;;15.55;100.00;99590.09;5024451;28;20041;-83
2023/08/14 00:40:10;;;;;;;11.43;1.92;;;;;;;15.53;100.00;99590.28;5030360;28;20029;-83
2023/08/14 00:42:42;;;;;;;9.63;2.28;;;;;;;15.56;100.00;99581.91;5026682;28;20069;-82
2023/08/14 00:45:09;;;;;;;6.88;1.90;;;;;;;15.54;100.00;99575.97;5015199;28;20128;-83
2023/08/14 00:47:39;;;;;;;7.30;2.30;;;;;;;15.57;100.00;99580.06;5030741;28;20037;-83
2023/08/14 00:50:07;;;;;;;11.05;2.33;;;;;;;15.60;100.00;99590.31;5012702;28;21356;-83
2023/08/14 00:52:46;;;;;;;8.77;2.03;;;;;;;15.61;100.00;99576.81;5017627;28;20136;-83
2023/08/14 00:55:16;;;;;;;9.75;1.60;;;;;;;15.61;100.00;99584.81;5032587;28;20085;-83
2023/08/14 00:57:42;;;;;;;8.85;1.95;;;;;;;15.58;100.00;99582.53;4998426;28;20044;-82
2023/08/14 01:00:09;;;;;;;8.18;2.33;;;;;;;15.58;100.00;99573.72;5029373;28;20471;-81
2023/08/14 01:02:36;;;;;;;9.63;2.47;;;;;;;15.59;100.00;99575.38;5033421;28;20116;-81
2023/08/14 01:05:02;;;;;;;8.15;2.33;;;;;;;15.58;100.00;99577.22;5045411;28;20476;-83
2023/08/14 01:07:29;;;;;;;8.00;2.08;;;;;;;15.55;100.00;99574.94;5019146;28;20044;-83
2023/08/14 01:09:56;;;;;;;8.27;1.77;;;;;;;15.49;100.00;99573.91;5005038;28;20446;-82
2023/08/14 01:12:42;;;;;;;10.43;2.25;;;;;;;15.45;100.00;99575.31;5013010;28;20040;-82
2023/08/14 01:15:18;;;;;;;11.30;2.15;;;;;;;15.33;100.00;99569.72;5032207;28;20073;-83
2023/08/14 01:17:57;;;;;;;10.88;2.53;;;;;;;15.31;100.00;99557.63;4991309;28;20587;-82
2023/08/14 01:20:25;;;;;;;7.22;2.08;;;;;;;15.25;100.00;99556.59;5034567;28;20033;-83
2023/08/14 01:23:17;;;;;;;8.13;2.60;;;;;;;15.24;100.00;99552.28;5017093;28;20090;-82
2023/08/14 01:25:44;;;;;;;11.73;4.72;;;;;;;15.20;100.00;99553.69;5003313;28;20043;-83
2023/08/14 01:28:10;;;;;;;21.10;4.20;;;;;;;15.20;100.00;99553.69;5029124;28;20049;-83
2023/08/14 01:30:36;;;;;;;13.45;2.92;;;;;;;15.20;100.00;99553.69;5012679;28;20041;-82
2023/08/14 01:33:02;;;;;;;10.35;2.78;;;;;;;15.19;100.00;99552.88;5021705;28;20044;-83
2023/08/14 01:35:38;;;;;;;11.75;3.38;;;;;;;15.12;100.00;99552.00;5021815;28;20036;-83
2023/08/14 01:38:18;;;;;;;13.20;2.60;;;;;;;14.99;100.00;99542.94;5014380;28;20048;-83
2023/08/14 01:41:03;;;;;;;10.50;2.42;;;;;;;14.97;100.00;99544.97;5034503;28;20398;-81
2023/08/14 01:43:42;;;;;;;9.95;2.00;;;;;;;15.01;100.00;99540.06;5025667;28;20049;-83
2023/08/14 01:46:10;;;;;;;10.90;2.15;;;;;;;15.02;100.00;99541.72;5009811;28;20045;-83
2023/08/14 01:48:37;;;;;;;12.88;2.72;;;;;;;15.02;100.00;99543.56;5011906;28;20044;-82
2023/08/14 01:51:04;;;;;;;9.63;2.00;;;;;;;14.98;100.00;99537.81;5021359;28;20057;-83
2023/08/14 01:53:34;;;;;;;11.20;2.05;;;;;;;15.00;100.00;99536.59;5032732;28;20046;-83
2023/08/14 01:56:01;;;;;;;13.02;2.30;;;;;;;15.03;100.00;99537.22;4992264;28;20426;-83
2023/08/14 01:58:27;;;;;;;9.90;2.28;;;;;;;15.10;100.00;99533.56;4994956;28;20033;-82
2023/08/14 02:00:53;;;;;;;9.30;2.45;;;;;;;15.15;100.00;99540.13;4998029;28;20060;-83
2023/08/14 02:03:19;;;;;;;8.38;2.20;;;;;;;15.18;100.00;99532.59;5031989;28;20029;-82
2023/08/14 02:05:45;;;;;;;8.45;1.92;;;;;;;15.22;100.00;99533.03;5028944;28;20487;-82
2023/08/14 02:08:11;;;;;;;6.30;2.22;;;;;;;15.23;100.00;99530.16;5028588;28;20033;-83
2023/08/14 02:10:36;;;;;;;10.63;2.10;;;;;;;15.19;100.00;99528.91;5033135;28;20040;-81
2023/08/14 02:13:02;;;;;;;20.27;3.42;;;;;;;15.15;100.00;99522.34;5017591;28;20041;-81
2023/08/14 02:15:28;;;;;;;14.50;2.40;;;;;;;15.11;100.00;99524.56;5045456;28;20025;-83
2023/08/14 02:17:54;;;;;;;9.95;2.08;;;;;;;15.05;100.00;99519.22;5010007;28;20040;-83
2023/08/14 02:20:20;;;;;;;12.57;2.85;;;;;;;15.05;100.00;99522.69;5018625;28;20029;-83
2023/08/14 02:22:46;;;;;;;13.57;2.25;;;;;;;15.01;100.00;99516.13;5000628;28;20037;-83
2023/08/14 02:25:12;;;;;;;8.93;2.45;;;;;;;14.99;100.00;99518.16;5031016;28;20030;-83
2023/08/14 02:27:38;;;;;;;7.25;2.42;;;;;;;15.02;100.00;99508.97;5045554;28;20041;-83
2023/08/14 02:30:05;;;;;;;13.10;2.03;;;;;;;15.06;100.00;99513.69;5013659;28;20105;-83
2023/08/14 02:32:30;;;;;;;11.43;1.98;;;;;;;15.05;100.00;99508.59;5004799;28;20395;-83
2023/08/14 02:34:56;;;;;;;9.85;1.90;;;;;;;15.03;100.00;99506.13;5008642;28;20033;-83
2023/08/14 02:37:22;;;;;;;8.82;2.40;;;;;;;15.05;100.00;99513.91;5044836;28;20055;-83
2023/08/14 02:39:48;;;;;;;11.73;2.05;;;;;;;15.03;100.00;99514.09;5050955;28;20487;-83
2023/08/14 02:42:16;;;;;;;8.35;2.03;;;;;;;15.09;100.00;99517.81;5014714;28;20028;-83
2023/08/14 02:44:42;;;;;;;10.43;2.22;;;;;;;15.10;100.00;99514.94;5023421;28;20036;-83
2023/08/14 02:47:07;;;;;;;7.10;1.95;;;;;;;15.12;100.00;99512.91;5026350;28;20037;-83
2023/08/14 02:49:33;;;;;;;11.57;2.50;;;;;;;15.13;100.00;99509.22;5042436;28;20476;-82
2023/08/14 02:51:59;;;;;;;9.45;1.83;;;;;;;15.15;100.00;99510.84;5012304;28;20029;-82
2023/08/14 02:54:26;;;;;;;9.38;2.03;;;;;;;15.12;100.00;99507.59;5020437;28;20033;-81
2023/08/14 02:56:51;;;;;;;9.10;2.15;;;;;;;15.09;100.00;99507.16;5010919;28;20480;-81
2023/08/14 02:59:17;;;;;;;10.27;2.90;;;;;;;15.05;100.00;99508.59;5031935;28;20064;-83
2023/08/14 03:01:43;;;;;;;9.75;1.90;;;;;;;15.07;100.00;99504.69;5032310;28;20521;-82
2023/08/14 03:04:09;;;;;;;11.40;2.38;;;;;;;15.12;100.00;99507.59;5015550;28;20040;-82
2023/08/14 03:06:34;;;;;;;12.93;2.10;;;;;;;15.15;100.00;99513.50;5033559;28;20037;-83
2023/08/14 03:09:01;;;;;;;7.82;2.17;;;;;;;15.16;100.00;99513.31;5024591;28;20088;-81
2023/08/14 03:11:27;;;;;;;8.50;1.90;;;;;;;15.19;100.00;99504.97;5029368;28;20570;-81
2023/08/14 03:13:53;;;;;;;8.88;2.20;;;;;;;15.21;100.00;99502.91;5025015;28;20083;-82
2023/08/14 03:16:20;;;;;;;11.60;2.20;;;;;;;15.22;100.00;99506.41;5033118;28;20506;-82
2023/08/14 03:18:46;;;;;;;7.10;1.80;;;;;;;15.18;100.00;99497.19;5014323;28;20045;-81
2023/08/14 03:21:12;;;;;;;5.38;1.83;;;;;;;15.12;100.00;99501.44;5013354;28;20048;-81
2023/08/14 03:23:37;;;;;;;8.15;1.85;;;;;;;15.05;100.00;99495.28;5043372;28;20045;-82
2023/08/14 03:26:04;;;;;;;11.57;2.70;;;;;;;15.01;100.00;99500.16;5010891;28;20029;-82
2023/08/14 03:28:31;;;;;;;6.60;1.70;;;;;;;14.93;100.00;99498.47;5014989;28;20033;-83
2023/08/14 03:30:57;;;;;;;15.38;1.63;;;;;;;14.90;100.00;99508.69;5015575;28;20133;-82
2023/08/14 03:33:24;;;;;;;16.95;1.88;;;;;;;14.85;100.00;99503.97;5014212;28;20056;-82
2023/08/14 03:35:54;;;;;;;10.43;1.70;;;;;;;14.85;100.00;99496.81;5026450;28;20055;-82
2023/08/14 03:38:21;;;;;;;4.45;1.42;;;;;;;14.83;100.00;99498.00;5021412;28;20041;-83
2023/08/14 03:40:46;;;;;;;7.90;1.25;;;;;;;14.84;100.00;99497.81;5024842;28;20033;-82
2023/08/14 03:43:12;;;;;;;9.25;1.45;;;;;;;14.83;100.00;99500.66;5010639;28;20102;-82
2023/08/14 03:45:38;;;;;;;7.65;1.52;;;;;;;14.80;100.00;99493.06;5026233;28;20033;-82
2023/08/14 03:48:04;;;;;;;11.30;1.65;;;;;;;14.76;100.00;99495.28;5028623;28;20036;-82
2023/08/14 03:50:30;;;;;;;7.05;1.40;;;;;;;14.76;100.00;99500.63;5041738;28;20032;-82
2023/08/14 03:52:56;;;;;;;8.13;1.30;;;;;;;14.72;100.00;99496.69;5020804;28;20030;-82
2023/08/14 03:55:22;;;;;;;5.47;1.10;;;;;;;14.67;100.00;99493.81;5035860;28;20025;-82
2023/08/14 03:57:47;;;;;;;7.20;1.10;;;;;;;14.61;100.00;99490.06;5025028;28;20415;-83
2023/08/14 04:00:13;;;;;;;6.55;1.17;;;;;;;14.57;100.00;99494.94;5028673;28;20042;-82
2023/08/14 04:02:41;;;;;;;6.95;1.05;;;;;;;14.57;100.00;99496.81;5017555;28;20095;-83
2023/08/14 04:05:07;;;;;;;8.43;1.13;;;;;;;14.61;100.00;99484.75;5015381;28;20039;-82
2023/08/14 04:07:33;;;;;;;3.97;1.05;;;;;;;14.63;100.00;99483.56;5029576;28;20043;-82
2023/08/14 04:09:59;;;;;;;5.38;1.00;;;;;;;14.64;100.00;99476.38;5013113;28;20036;-82
2023/08/14 04:12:25;;;;;;;7.05;1.17;;;;;;;14.63;100.00;99482.72;5005675;28;20036;-83
2023/08/14 04:14:51;;;;;;;4.65;1.13;;;;;;;14.64;100.00;99479.88;5013034;28;20368;-82
2023/08/14 04:17:17;;;;;;;7.75;1.50;;;;;;;14.63;100.00;99472.09;4970172;28;20248;-82
2023/08/14 04:19:43;;;;;;;8.20;1.35;;;;;;;14.61;100.00;99471.47;5029376;28;20052;-82
2023/08/14 04:22:09;;;;;;;8.02;1.48;;;;;;;14.58;100.00;99471.84;5031642;28;20480;-82
2023/08/14 04:24:35;;;;;;;11.38;1.48;;;;;;;14.57;100.00;99470.22;5013654;28;20029;-82
2023/08/14 04:27:01;;;;;;;7.13;1.30;;;;;;;14.55;100.00;99461.59;5032797;28;20476;-82
2023/08/14 04:29:27;;;;;;;3.92;0.90;;;;;;;14.58;100.00;99469.19;5028727;28;20452;-82
2023/08/14 04:31:53;;;;;;;8.32;1.00;;;;;;;14.59;100.00;99470.81;5018804;28;20030;-82
2023/08/14 04:34:20;;;;;;;7.80;1.55;;;;;;;14.60;100.00;99465.34;5031681;28;20030;-82
2023/08/14 04:36:49;;;;;;;4.32;0.95;;;;;;;14.59;100.00;99466.34;5016470;28;20069;-82
2023/08/14 04:39:16;;;;;;;5.80;0.88;;;;;;;14.58;100.00;99470.03;5025186;28;20049;-82
2023/08/14 04:41:42;;;;;;;5.32;1.10;;;;;;;14.54;100.00;99471.41;5031595;28;20041;-83
2023/08/14 04:44:08;;;;;;;5.28;0.88;;;;;;;14.52;100.00;99476.13;5014930;28;20510;-82
2023/08/14 04:46:36;;;;;;;9.05;1.10;;;;;;;14.56;100.00;99476.53;5031888;28;20037;-82
2023/08/14 04:49:03;;;;;;;3.88;1.42;;;;;;;14.60;100.00;99480.47;5015683;28;20844;-82
2023/08/14 04:51:30;;;;;;;4.32;1.25;;;;;;;14.64;100.00;99479.88;5024076;28;20040;-82
2023/08/14 04:53:57;;;;;;;9.27;1.50;;;;;;;14.66;100.00;99476.19;5030747;28;20038;-83
2023/08/14 04:56:24;;;;;;;8.35;1.13;;;;;;;14.69;100.00;99481.13;5014466;28;20442;-82
2023/08/14 04:58:52;;;;;;;7.53;1.05;;;;;;;14.70;100.00;99478.25;5020541;28;20042;-81
2023/08/14 05:01:18;;;;;;;3.80;0.90;;;;;;;14.73;100.00;99488.50;5025172;28;20120;-81
2023/08/14 05:03:45;;;;;;;6.40;1.00;;;;;;;14.73;100.00;99480.53;5020778;28;20136;-82
2023/08/14 05:06:11;;;;;;;7.50;0.90;;;;;;;14.74;100.00;99479.53;5015819;28;20037;-83
2023/08/14 05:08:38;;;;;;;5.93;0.75;;;;;;;14.75;100.00;99475.84;5002223;28;20061;-81
2023/08/14 05:11:03;;;;;;;6.93;1.23;;;;;;;14.78;100.00;99476.47;5027088;28;20117;-81
2023/08/14 05:13:29;;;;;;;5.28;1.13;;;;;;;14.80;100.00;99477.94;5024263;28;20033;-83
2023/08/14 05:15:56;;;;;;;4.22;1.20;;;;;;;14.82;100.00;99486.56;5024516;28;20908;-82
2023/08/14 05:18:21;;;;;;;7.95;1.00;;;;;;;14.85;100.00;99486.16;5030143;28;20046;-83
2023/08/14 05:20:49;;;;;;;8.93;1.35;;;;;;;14.84;100.00;99484.50;5007914;28;20045;-82
2023/08/14 05:23:16;;;;;;;5.68;1.15;;;;;;;14.85;100.00;99485.34;5012090;28;20450;-82
2023/08/14 05:25:43;;;;;;;6.82;1.00;;;;;;;14.87;100.00;99485.97;5010948;28;20040;-82
2023/08/14 05:28:09;;;;;;;13.18;1.00;;;;;;;14.91;100.00;99494.38;5007748;28;20041;-82
2023/08/14 05:30:35;;;;;;;6.72;1.00;;;;;;;14.88;100.00;99491.09;5017371;28;20046;-82
2023/08/14 05:33:01;;;;;;;5.60;1.38;;;;;;;14.91;100.00;99489.88;5023659;28;20460;-82
2023/08/14 05:35:28;;;;;;;7.00;1.35;;;;;;;14.90;100.00;99482.91;5008730;28;20052;-82
2023/08/14 05:37:56;;;;;;;3.38;0.60;;;;;;;14.90;100.00;99487.41;5013117;28;20439;-82
2023/08/14 05:40:25;;;;;;;3.40;0.70;;;;;;;14.93;100.00;99487.00;5019005;28;20036;-82
2023/08/14 05:43:06;;;;;;;5.22;0.90;;;;;;;14.95;100.00;99482.31;5031493;28;20033;-83
2023/08/14 05:45:32;;;;;;;6.07;1.10;;;;;;;14.91;100.00;99483.75;5031285;28;20063;-82
2023/08/14 05:47:59;;;;;;;5.00;0.80;;;;;;;14.89;100.00;99491.94;5023512;28;20060;-82
2023/08/14 05:50:27;;;;;;;4.47;0.98;;;;;;;14.85;100.00;99483.50;5024950;28;20120;-81
2023/08/14 05:52:55;;;;;;;7.00;0.93;;;;;;;14.90;100.00;99485.56;5030615;28;20574;-81
2023/08/14 05:55:22;;;;;;;8.57;1.08;;;;;;;14.87;100.00;99489.44;5013384;28;20030;-82
2023/08/14 05:57:48;;;;;;;8.23;1.05;;;;;;;14.85;100.00;99483.50;5031067;28;20033;-82
2023/08/14 06:00:14;;;;;;;1.98;0.77;;;;;;;14.86;100.00;99490.47;5006554;28;20553;-82
2023/08/14 06:02:43;;;;;;;5.68;0.90;;;;;;;14.85;100.00;99480.84;5012133;28;20036;-82
2023/08/14 06:05:09;;;;;;;4.97;1.15;;;;;;;14.84;100.00;99475.72;5029657;28;20028;-83
2023/08/14 06:07:35;;;;;;;9.63;1.10;;;;;;;14.81;100.00;99479.56;5027323;28;20034;-82
2023/08/14 06:10:05;;;;;;;3.47;1.08;;;;;;;14.85;100.00;99478.19;5026417;28;20037;-82
2023/08/14 06:12:32;;;;;;;9.68;1.25;;;;;;;14.81;100.00;99481.44;5012903;28;20436;-83
2023/08/14 06:14:58;;;;;;;5.05;1.00;;;;;;;14.82;100.00;99483.06;5013457;28;20091;-83
2023/08/14 06:17:24;;;;;;;4.85;0.80;;;;;;;14.84;100.00;99483.72;5013801;28;20492;-83
2023/08/14 06:19:50;;;;;;;5.72;1.08;;;;;;;14.83;100.00;99480.22;5021375;28;20124;-83
2023/08/14 06:22:17;;;;;;;3.38;0.95;;;;;;;14.79;100.00;99489.63;5023277;28;20028;-83
2023/08/14 06:24:43;;;;;;;3.92;0.80;;;;;;;14.78;100.00;99492.44;4988807;28;20467;-83
2023/08/14 06:27:09;;;;;;;8.27;1.00;;;;;;;14.74;100.00;99484.84;5016890;28;20030;-82
2023/08/14 06:29:35;;;;;;;5.90;1.10;;;;;;;14.75;100.00;99489.16;5015547;28;20392;-83
2023/08/14 06:32:01;;;;;;;2.75;0.88;;;;;;;14.76;100.00;99492.63;5026031;28;20038;-82
2023/08/14 06:34:27;;;;;;;3.85;0.90;;;;;;;14.78;100.00;99495.09;5020921;28;20426;-82
2023/08/14 06:36:53;;;;;;;4.07;0.75;;;;;;;14.80;100.00;99493.06;5028548;28;20038;-82
2023/08/14 06:39:20;;;;;;;3.92;0.77;;;;;;;14.85;100.00;99499.47;5009449;28;20443;-83
2023/08/14 06:41:45;;;;;;;7.60;1.02;;;;;;;14.88;100.00;99500.91;5022387;28;20029;-83
2023/08/14 06:44:12;;;;;;;7.97;1.38;;;;;;;14.84;100.00;99503.13;4995231;28;20038;-83
2023/08/14 06:46:38;;;;;;;3.25;0.73;;;;;;;14.87;100.00;99507.25;5014370;28;20037;-83
2023/08/14 06:49:04;;;;;;;5.80;0.98;;;;;;;14.85;100.00;99509.28;5018376;28;20083;-82
2023/08/14 06:51:31;;;;;;;5.10;1.13;;;;;;;14.87;100.00;99505.41;5025189;28;20116;-83
2023/08/14 06:53:57;;;;;;;5.40;1.10;;;;;;;14.90;100.00;99511.34;5024725;28;20116;-82
2023/08/14 06:56:24;;;;;;;5.95;1.30;;;;;;;14.90;100.00;99506.03;5022116;28;20033;-83
2023/08/14 06:58:50;;;;;;;3.58;1.20;;;;;;;14.94;100.00;99508.09;5022786;28;20404;-83
2023/08/14 07:01:16;;;;;;;3.67;0.90;;;;;;;14.97;100.00;99510.38;5027460;28;20026;-84
2023/08/14 07:03:42;;;;;;;6.05;1.08;;;;;;;15.03;100.00;99510.59;5026878;28;20033;-83
2023/08/14 07:06:07;;;;;;;6.80;1.50;;;;;;;15.08;100.00;99516.16;5020068;28;20045;-83
2023/08/14 07:08:33;;;;;;;8.70;1.38;;;;;;;15.13;100.00;99519.03;5021089;28;20088;-83
2023/08/14 07:10:59;;;;;;;6.55;1.08;;;;;;;15.19;100.00;99520.09;5009213;28;20038;-83
2023/08/14 07:13:25;;;;;;;11.07;1.52;;;;;;;15.27;100.00;99513.78;5021362;28;20068;-81
2023/08/14 07:15:51;;;;;;;7.47;1.85;;;;;;;15.32;100.00;99517.47;5023320;28;20041;-81
2023/08/14 07:18:18;;;;;;;5.72;1.40;;;;;;;15.35;100.00;99517.09;5020515;28;20045;-82
2023/08/14 07:20:48;;;;;;;11.30;1.40;;;;;;;15.37;100.00;99516.88;4992101;28;20034;-83
2023/08/14 07:23:19;;;;;;;6.90;1.35;;;;;;;15.40;100.00;99521.81;5014902;28;20113;-83
2023/08/14 07:25:46;;;;;;;3.95;1.25;;;;;;;15.40;100.00;99515.69;5031672;28;20034;-83
2023/08/14 07:28:11;;;;;;;7.00;1.60;;;;;;;15.40;100.00;99524.47;5022928;28;20033;-82
2023/08/14 07:30:39;;;;;;;13.10;1.95;;;;;;;15.37;100.00;99525.72;5027490;28;20041;-82
2023/08/14 07:33:07;;;;;;;7.78;1.90;;;;;;;15.37;100.00;99523.03;5017824;28;20061;-82
2023/08/14 07:35:33;;;;;;;9.77;2.22;;;;;;;15.38;100.00;99530.00;4985981;28;20132;-83
2023/08/14 07:37:59;;;;;;;13.40;2.28;;;;;;;15.35;100.00;99530.41;5020920;28;20053;-83
2023/08/14 07:40:25;;;;;;;8.30;1.58;;;;;;;15.29;100.00;99530.41;5000115;28;20038;-83
2023/08/14 07:42:51;;;;;;;13.23;1.80;;;;;;;15.18;100.00;99532.59;4953951;28;20048;-83
2023/08/14 07:45:17;;;;;;;10.13;1.60;;;;;;;15.09;100.00;99531.09;5007782;28;20038;-83
2023/08/14 07:47:43;;;;;;;10.88;1.38;;;;;;;15.04;100.00;99538.84;5021345;28;20041;-83
2023/08/14 07:50:10;;;;;;;8.73;2.40;;;;;;;15.05;100.00;99532.53;5019471;28;20033;-83
2023/08/14 07:52:35;;;;;;;13.45;1.88;;;;;;;15.03;100.00;99534.56;5009911;28;20038;-83
2023/08/14 07:55:02;;;;;;;4.70;1.33;;;;;;;15.02;100.00;99546.22;5015056;28;20030;-83
2023/08/14 07:57:28;;;;;;;7.55;1.30;;;;;;;14.98;100.00;99537.81;5019292;28;20458;-82
2023/08/14 07:59:54;;;;;;;10.18;1.95;;;;;;;15.03;100.00;99542.53;5019636;28;20036;-83
2023/08/14 08:02:20;;;;;;;7.60;1.42;;;;;;;15.01;100.00;99542.72;5018325;28;20040;-82
2023/08/14 08:04:47;;;;;;;9.23;1.58;;;;;;;15.06;100.00;99550.13;5018011;28;20041;-82
2023/08/14 08:07:13;;;;;;;10.18;1.48;;;;;;;15.04;100.00;99550.31;5012016;28;20129;-83
2023/08/14 08:09:39;;;;;;;6.28;1.15;;;;;;;15.08;100.00;99556.88;5019190;28;20045;-83
2023/08/14 08:12:06;;;;;;;4.50;1.35;;;;;;;15.13;100.00;99554.47;5022623;28;20057;-82
2023/08/14 08:14:33;;;;;;;6.90;1.10;;;;;;;15.21;100.00;99561.47;5016088;28;20148;-82
2023/08/14 08:16:59;;;;;;;6.70;1.48;;;;;;;15.24;100.00;99555.75;5014575;28;20040;-82
2023/08/14 08:19:25;;;;;;;5.18;1.35;;;;;;;15.26;100.00;99558.22;5006956;28;20050;-83
2023/08/14 08:21:51;;;;;;;5.47;1.13;;;;;;;15.25;100.00;99568.06;5008400;28;20032;-82
2023/08/14 08:24:19;;;;;;;7.00;1.10;;;;;;;15.22;100.00;99568.47;5033433;28;20038;-82
2023/08/14 08:26:45;;;;;;;6.78;1.15;;;;;;;15.20;100.00;99570.47;5021553;28;20044;-83
2023/08/14 08:29:10;;;;;;;4.43;1.08;;;;;;;15.17;100.00;99570.88;5018225;28;20037;-83
2023/08/14 08:31:36;;;;;;;6.78;1.33;;;;;;;15.15;100.00;99575.56;5015451;28;20041;-83
2023/08/14 08:34:02;;;;;;;5.25;1.60;;;;;;;15.07;100.00;99573.06;5012851;28;20038;-83
2023/08/14 08:36:28;;;;;;;7.70;1.48;;;;;;;15.07;100.00;99581.88;5014208;28;20049;-83
2023/08/14 08:38:53;;;;;;;5.72;1.15;;;;;;;15.02;100.00;99575.50;5014694;28;20034;-83
2023/08/14 08:41:32;;;;;;;5.68;1.42;;;;;;;15.07;100.00;99578.38;5014944;28;20060;-82
2023/08/14 08:44:09;;;;;;;8.02;1.55;;;;;;;15.07;100.00;99576.53;5014837;28;20056;-83
2023/08/14 08:46:37;;;;;;;9.77;1.45;;;;;;;15.03;100.00;99585.13;5004265;28;20069;-82
2023/08/14 08:49:04;;;;;;;6.25;0.98;;;;;;;14.98;100.00;99580.38;5017947;28;20033;-82
2023/08/14 08:51:30;;;;;;;4.43;1.10;;;;;;;14.98;100.00;99591.03;5009463;28;20038;-82
2023/08/14 08:53:58;;;;;;;4.18;1.20;;;;;;;14.99;100.00;99596.16;5027820;28;20033;-83
2023/08/14 08:56:25;;;;;;;5.72;1.30;;;;;;;15.02;100.00;99599.44;5030986;28;20116;-82
2023/08/14 08:58:52;;;;;;;6.32;1.25;;;;;;;15.03;100.00;99601.09;5008257;28;20037;-83
2023/08/14 09:01:19;;;;;;;6.22;1.25;;;;;;;15.00;100.00;99600.44;5011159;28;20034;-82
2023/08/14 09:03:45;;;;;;;7.38;1.52;;;;;;;15.05;100.00;99610.50;5025009;28;20072;-82
2023/08/14 09:06:11;;;;;;;4.35;1.40;;;;;;;15.09;100.00;99600.31;5018181;28;20049;-82
2023/08/14 09:08:37;;;;;;;2.83;1.20;;;;;;;15.12;100.00;99603.41;5027317;28;20104;-82
2023/08/14 09:11:02;;;;;;;4.88;1.25;;;;;;;15.12;100.00;99607.91;5015442;28;20088;-83
2023/08/14 09:13:29;;;;;;;5.07;1.50;;;;;;;15.13;100.00;99612.19;5024994;28;20753;-83
2023/08/14 09:15:55;;;;;;;7.43;1.08;;;;;;;15.15;100.00;99607.50;5014216;28;20038;-81
2023/08/14 09:18:21;;;;;;;5.03;1.00;;;;;;;15.17;100.00;99608.16;5016505;28;20052;-83
2023/08/14 09:20:46;;;;;;;8.38;1.27;;;;;;;15.20;100.00;99613.06;5027639;28;20700;-83
2023/08/14 09:23:13;;;;;;;7.13;0.98;;;;;;;15.21;100.00;99612.03;5012177;28;20119;-83
2023/08/14 09:25:45;;;;;;;2.90;0.55;;;;;;;15.33;100.00;99616.81;5026877;28;20034;-82
2023/08/14 09:28:12;;;;;;;2.13;0.80;;;;;;;15.34;100.00;99615.81;5029521;28;20037;-83
2023/08/14 09:30:38;;;;;;;3.65;0.82;;;;;;;15.31;100.00;99618.84;5019907;28;20050;-84
2023/08/14 09:33:08;;;;;;;3.28;1.35;;;;;;;15.34;100.00;99613.97;5011211;28;20041;-83
2023/08/14 09:35:35;;;;;;;3.75;0.65;;;;;;;15.36;100.00;99614.59;5011039;28;20383;-83
2023/08/14 09:38:01;;;;;;;3.88;0.60;;;;;;;15.37;100.00;99612.75;5004248;28;20036;-83
2023/08/14 09:40:27;;;;;;;3.10;0.70;;;;;;;15.35;100.00;99612.94;5006109;28;20496;-83
2023/08/14 09:42:55;;;;;;;4.65;0.70;;;;;;;15.43;100.00;99608.50;5018510;28;20029;-83
2023/08/14 09:45:24;;;;;;;4.43;0.80;;;;;;;15.47;100.00;99609.72;5009607;28;20034;-83
2023/08/14 09:47:51;;;;;;;9.68;1.35;;;;;;;15.48;100.00;99611.38;4956057;28;20032;-83
2023/08/14 09:50:19;;;;;;;2.03;0.77;;;;;;;15.53;100.00;99613.47;5016711;28;20167;-83
2023/08/14 09:52:45;;;;;;;3.80;0.95;;;;;;;15.52;100.00;99612.63;5016928;28;20495;-83
2023/08/14 09:55:14;;;;;;;5.13;0.80;;;;;;;15.53;100.00;99621.44;5017707;28;20067;-83
2023/08/14 09:57:41;;;;;;;2.35;0.70;;;;;;;15.51;100.00;99613.66;5014583;28;20065;-83
2023/08/14 10:00:08;;;;;;;1.35;0.50;;;;;;;15.53;100.00;99610.78;5008749;28;20033;-83
2023/08/14 10:02:37;;;;;;;2.33;0.70;;;;;;;15.57;100.00;99612.88;5017549;28;20038;-83
2023/08/14 10:05:09;;;;;;;3.78;0.85;;;;;;;15.61;100.00;99611.44;5024048;28;20064;-83
2023/08/14 10:07:36;;;;;;;4.80;0.93;;;;;;;15.66;100.00;99616.16;5026949;28;20026;-83
2023/08/14 10:10:03;;;;;;;4.63;1.00;;;;;;;15.75;100.00;99617.63;5015068;28;20068;-83
2023/08/14 10:12:33;;;;;;;2.20;0.50;;;;;;;15.79;100.00;99615.41;5019251;28;20546;-82
2023/08/14 10:15:05;;;;;;;4.63;0.70;;;;;;;15.85;100.00;99613.78;5039441;28;20033;-83
2023/08/14 10:17:36;;;;;;;4.20;0.50;;;;;;;16.02;100.00;99613.47;5016450;28;20029;-83
2023/08/14 10:20:03;;;;;;;3.55;0.60;;;;;;;16.08;100.00;99608.16;5019757;28;20517;-82
2023/08/14 10:22:32;;;;;;;1.98;0.50;;;;;;;16.12;100.00;99611.22;5022362;28;20057;-83
2023/08/14 10:25:03;;;;;;;4.05;0.85;;;;;;;16.18;100.00;99614.94;5023334;28;20109;-83
2023/08/14 10:27:30;;;;;;;1.75;0.40;;;;;;;16.21;100.00;99609.19;5024118;28;20042;-83
2023/08/14 10:29:56;;;;;;;2.33;0.95;;;;;;;16.22;100.00;99608.16;5024047;28;20065;-83
2023/08/14 10:32:22;;;;;;;2.10;0.70;;;;;;;16.25;100.00;99607.75;5023814;28;20563;-83
2023/08/14 10:34:49;;;;;;;2.42;0.55;;;;;;;16.32;100.00;99605.09;5019495;28;20048;-82
2023/08/14 10:37:43;;;;;;;2.25;0.50;;;;;;;16.42;100.00;99610.06;5012770;28;20480;-83
2023/08/14 10:40:18;;;;;;;1.88;0.40;;;;;;;16.49;100.00;99605.53;5023475;28;20059;-83
2023/08/14 10:42:51;;;;;;;3.15;0.65;;;;;;;16.57;100.00;99612.50;5024760;28;20048;-83
2023/08/14 10:45:18;;;;;;;3.78;0.68;;;;;;;16.65;100.00;99598.13;5014750;28;20377;-82
2023/08/14 10:47:44;;;;;;;2.30;0.80;;;;;;;16.68;100.00;99601.22;5023517;28;20624;-83
2023/08/14 10:50:15;;;;;;;3.13;0.63;;;;;;;16.74;100.00;99610.25;5014896;28;20033;-83
2023/08/14 10:52:48;;;;;;;3.38;0.70;;;;;;;16.84;100.00;99607.16;5000073;28;20073;-83
2023/08/14 10:55:16;;;;;;;3.83;0.77;;;;;;;16.88;100.00;99603.06;5020031;28;20044;-83
2023/08/14 10:57:42;;;;;;;1.92;0.43;;;;;;;16.95;100.00;99600.38;5021806;28;20032;-83
2023/08/14 11:00:28;;;;;;;6.55;0.85;;;;;;;17.05;100.00;99606.13;5005271;28;20029;-81
2023/08/14 11:03:04;;;;;;;3.70;0.55;;;;;;;17.15;100.00;99605.72;5027868;28;20045;-82
2023/08/14 11:05:38;;;;;;;3.33;0.50;;;;;;;17.22;100.00;99606.53;5023413;28;20435;-82
2023/08/14 11:08:10;;;;;;;3.75;0.50;;;;;;;17.35;100.00;99612.84;5021861;28;20033;-83
2023/08/14 11:10:37;;;;;;;3.53;0.60;;;;;;;17.47;100.00;99615.72;5008057;28;20057;-82
2023/08/14 11:13:08;;;;;;;3.80;0.75;;;;;;;17.52;100.00;99605.19;5018511;28;20037;-83
2023/08/14 11:15:38;;;;;;;2.47;0.50;;;;;;;17.54;100.00;99615.66;5008883;28;20037;-83
2023/08/14 11:18:06;;;;;;;6.93;0.70;;;;;;;17.56;100.00;99616.28;5042717;28;20065;-83
2023/08/14 11:20:32;;;;;;;5.95;0.77;;;;;;;17.55;100.00;99620.81;5023724;28;20380;-83
2023/08/14 11:22:59;;;;;;;2.78;0.68;;;;;;;17.58;100.00;99612.38;5017181;28;20044;-83
2023/08/14 11:25:25;;;;;;;3.25;0.95;;;;;;;17.59;100.00;99619.38;5018408;28;20037;-82